createdAt,value
2019-03-09T00:01:35.635Z,-2.37
2019-03-09T00:04:45.175Z,-2.46
2019-03-09T00:07:22.120Z,-2.48
2019-03-09T00:10:03.592Z,-2.39
2019-03-09T00:12:57.840Z,-2.44
2019-03-09T00:15:32.932Z,-2.42
2019-03-09T00:18:13.684Z,-2.47
2019-03-09T00:20:52.705Z,-2.38
2019-03-09T00:24:03.238Z,-2.39
2019-03-09T00:26:44.296Z,-2.43
2019-03-09T00:29:19.915Z,-2.62
2019-03-09T00:33:01.665Z,-2.50
2019-03-09T00:37:55.903Z,-2.37
2019-03-09T00:40:31.287Z,-2.30
2019-03-09T00:43:14.084Z,-2.34
2019-03-09T00:45:56.631Z,-2.37
2019-03-09T00:48:44.171Z,-2.30
2019-03-09T00:51:26.451Z,-2.24
2019-03-09T01:00:32.975Z,-2.33
2019-03-09T01:03:16.925Z,-2.38
2019-03-09T01:06:23.417Z,-2.52
2019-03-09T01:08:58.682Z,-2.40
2019-03-09T01:11:40.459Z,-2.45
2019-03-09T01:14:28.910Z,-2.42
2019-03-09T01:17:20.936Z,-2.48
2019-03-09T01:19:56.047Z,-2.39
2019-03-09T01:22:51.183Z,-2.41
2019-03-09T01:25:28.936Z,-2.41
2019-03-09T01:28:11.849Z,-2.42
2019-03-09T01:33:49.116Z,-2.41
2019-03-09T01:36:23.134Z,-2.38
2019-03-09T01:39:12.967Z,-2.39
2019-03-09T01:41:55.222Z,-2.34
2019-03-09T01:44:27.537Z,-2.39
2019-03-09T01:47:07.497Z,-2.42
2019-03-09T01:49:52.992Z,-2.42
2019-03-09T01:52:33.404Z,-2.44
2019-03-09T01:55:07.439Z,-2.40
2019-03-09T01:57:55.637Z,-2.48
2019-03-09T02:00:35.844Z,-2.43
2019-03-09T02:03:07.808Z,-2.41
2019-03-09T02:05:40.365Z,-2.36
2019-03-09T02:08:14.010Z,-2.41
2019-03-09T02:11:00.607Z,-2.44
2019-03-09T02:13:33.114Z,-2.42
2019-03-09T02:16:13.171Z,-2.55
2019-03-09T02:18:56.043Z,-2.55
2019-03-09T02:21:36.519Z,-2.46
2019-03-09T02:24:14.664Z,-2.42
2019-03-09T02:26:49.073Z,-2.35
2019-03-09T02:29:25.070Z,-2.42
2019-03-09T02:32:09.527Z,-2.40
2019-03-09T02:34:46.608Z,-2.42
2019-03-09T02:37:31.719Z,-2.43
2019-03-09T02:40:11.157Z,-2.47
2019-03-09T02:42:51.401Z,-2.47
2019-03-09T02:45:33.220Z,-2.58
2019-03-09T02:48:03.787Z,-2.46
2019-03-09T02:50:36.189Z,-2.48
2019-03-09T02:53:21.554Z,-2.38
2019-03-09T02:55:55.914Z,-2.41
2019-03-09T02:58:30.945Z,-2.57
2019-03-09T03:01:35.793Z,-2.60
2019-03-09T03:04:32.050Z,-2.63
2019-03-09T03:07:07.313Z,-2.61
2019-03-09T03:09:43.817Z,-2.55
2019-03-09T03:12:12.572Z,-2.60
2019-03-09T03:14:55.709Z,-2.69
2019-03-09T03:17:31.450Z,-2.74
2019-03-09T03:21:19.604Z,-2.63
2019-03-09T03:22:55.316Z,-2.60
2019-03-09T03:25:46.536Z,-2.55
2019-03-09T03:28:38.548Z,-2.58
2019-03-09T03:31:27.005Z,-2.57
2019-03-09T03:33:54.159Z,-2.47
2019-03-09T03:36:25.054Z,-2.41
2019-03-09T03:39:04.993Z,-2.49
2019-03-09T03:41:37.486Z,-2.57
2019-03-09T03:44:12.738Z,-2.61
2019-03-09T03:46:51.842Z,-2.58
2019-03-09T03:49:37.641Z,-2.70
2019-03-09T03:52:12.779Z,-2.75
2019-03-09T03:54:47.915Z,-2.60
2019-03-09T03:57:26.628Z,-2.68
2019-03-09T04:00:07.316Z,-2.69
2019-03-09T04:02:45.386Z,-2.64
2019-03-09T04:05:18.107Z,-2.59
2019-03-09T04:07:49.906Z,-2.70
2019-03-09T04:10:21.915Z,-2.72
2019-03-09T04:12:58.370Z,-2.69
2019-03-09T04:15:39.434Z,-2.69
2019-03-09T04:18:19.586Z,-2.66
2019-03-09T04:21:04.340Z,-2.58
2019-03-09T04:23:31.302Z,-2.64
2019-03-09T04:26:03.574Z,-2.71
2019-03-09T04:28:40.440Z,-2.75
2019-03-09T04:31:18.556Z,-2.87
2019-03-09T04:33:54.554Z,-2.81
2019-03-09T04:36:37.425Z,-2.87
2019-03-09T04:39:10.016Z,-2.90
2019-03-09T04:41:45.156Z,-2.83
2019-03-09T04:44:20.386Z,-2.89
2019-03-09T04:46:55.070Z,-3.09
2019-03-09T04:49:29.685Z,-3.10
2019-03-09T04:52:07.539Z,-3.00
2019-03-09T04:54:41.135Z,-3.06
2019-03-09T04:57:20.938Z,-3.12
2019-03-09T04:59:54.621Z,-3.18
2019-03-09T05:02:39.776Z,-3.14
2019-03-09T05:05:14.824Z,-3.06
2019-03-09T05:07:52.842Z,-3.28
2019-03-09T05:10:43.353Z,-3.06
2019-03-09T05:13:46.012Z,-2.98
2019-03-09T05:16:17.392Z,-3.11
2019-03-09T05:18:57.038Z,-3.06
2019-03-09T05:21:37.001Z,-3.28
2019-03-09T05:24:21.587Z,-3.20
2019-03-09T05:26:56.517Z,-3.31
2019-03-09T05:29:43.493Z,-3.21
2019-03-09T05:32:28.279Z,-3.18
2019-03-09T05:35:03.792Z,-3.23
2019-03-09T05:37:45.536Z,-3.20
2019-03-09T05:40:22.948Z,-3.43
2019-03-09T05:42:56.712Z,-3.40
2019-03-09T05:45:34.728Z,-3.37
2019-03-09T05:48:11.162Z,-3.46
2019-03-09T05:50:48.188Z,-3.50
2019-03-09T05:53:22.532Z,-3.37
2019-03-09T05:55:56.411Z,-3.30
2019-03-09T05:58:33.523Z,-3.48
2019-03-09T06:01:07.854Z,-3.46
2019-03-09T06:03:44.903Z,-3.46
2019-03-09T06:06:24.421Z,-3.25
2019-03-09T06:09:14.886Z,-2.64
2019-03-09T06:11:50.975Z,-2.00
2019-03-09T06:14:45.583Z,-2.04
2019-03-09T06:17:24.536Z,-2.28
2019-03-09T06:19:55.334Z,-2.43
2019-03-09T06:22:30.251Z,-2.59
2019-03-09T06:25:08.302Z,-2.62
2019-03-09T06:28:08.264Z,-2.64
2019-03-09T06:30:50.954Z,-2.55
2019-03-09T06:33:29.083Z,-2.36
2019-03-09T06:36:36.138Z,-1.95
2019-03-09T06:39:48.470Z,-1.47
2019-03-09T06:42:31.098Z,-0.82
2019-03-09T06:45:23.356Z,-0.75
2019-03-09T06:48:08.810Z,-0.88
2019-03-09T06:50:56.600Z,-0.95
2019-03-09T06:53:37.095Z,-1.05
2019-03-09T06:56:41.054Z,-1.11
2019-03-09T06:59:23.386Z,-1.12
2019-03-09T07:01:58.811Z,-0.91
2019-03-09T07:16:31.017Z,1.35
2019-03-09T07:22:19.072Z,2.11
2019-03-09T07:25:33.048Z,2.50
2019-03-09T07:28:39.428Z,2.85
2019-03-09T07:44:51.781Z,4.75
2019-03-09T07:47:57.042Z,4.37
2019-03-09T08:00:57.449Z,5.39
2019-03-09T08:04:36.461Z,5.81
2019-03-09T08:07:37.328Z,5.10
2019-03-09T08:10:51.485Z,4.17
2019-03-09T08:13:42.409Z,4.06
2019-03-09T08:17:08.333Z,4.29
2019-03-09T08:19:49.251Z,4.32
2019-03-09T08:29:16.242Z,3.26
2019-03-09T09:16:46.935Z,2.29
2019-03-09T09:20:07.005Z,2.36
2019-03-09T09:42:37.114Z,2.46
2019-03-09T09:53:20.853Z,2.66
2019-03-09T09:56:05.851Z,2.66
2019-03-09T09:59:44.281Z,2.90
2019-03-09T10:08:56.010Z,4.06
2019-03-09T10:11:48.346Z,4.62
2019-03-09T10:15:10.434Z,4.57
2019-03-09T10:17:51.225Z,4.80
2019-03-09T10:20:36.394Z,4.24
2019-03-09T10:23:59.760Z,3.69
2019-03-09T10:26:38.414Z,3.36
2019-03-09T10:29:18.036Z,3.05
2019-03-09T10:31:54.294Z,3.06
2019-03-09T10:34:46.780Z,2.93
2019-03-09T11:00:35.392Z,3.24
